createdAt,value
2022-09-23T00:00:14.147Z,15.37
2022-09-23T00:02:47.164Z,19.38
2022-09-23T00:05:14.084Z,18.35
2022-09-23T00:07:41.167Z,17.40
2022-09-23T00:10:08.453Z,15.30
2022-09-23T00:12:38.061Z,21.23
2022-09-23T00:15:13.622Z,15.80
2022-09-23T00:17:42.888Z,16.48
2022-09-23T00:20:15.818Z,16.45
2022-09-23T00:22:45.649Z,21.30
2022-09-23T00:25:12.632Z,17.13
2022-09-23T00:27:43.342Z,16.08
2022-09-23T00:30:15.273Z,24.75
2022-09-23T00:32:46.400Z,15.23
2022-09-23T00:35:18.508Z,17.23
2022-09-23T00:37:45.171Z,16.57
2022-09-23T00:40:12.051Z,22.90
2022-09-23T00:42:45.053Z,18.00
2022-09-23T00:45:20.669Z,24.60
2022-09-23T00:47:54.857Z,15.73
2022-09-23T00:53:30.874Z,16.13
2022-09-23T00:56:04.079Z,16.77
2022-09-23T00:58:42.716Z,17.40
2022-09-23T01:01:09.441Z,15.15
2022-09-23T01:03:45.982Z,21.87
2022-09-23T01:06:15.309Z,21.63
2022-09-23T01:08:52.092Z,17.95
2022-09-23T01:11:57.326Z,14.80
2022-09-23T01:15:01.173Z,18.00
2022-09-23T01:20:58.458Z,18.58
2022-09-23T01:24:01.044Z,20.55
2022-09-23T01:26:49.188Z,16.98
2022-09-23T01:29:46.611Z,16.10
2022-09-23T01:35:36.354Z,22.92
2022-09-23T01:38:39.809Z,23.52
2022-09-23T01:41:44.967Z,23.05
2022-09-23T01:44:21.516Z,20.45
2022-09-23T01:47:01.697Z,23.37
2022-09-23T01:49:57.401Z,19.00
2022-09-23T01:52:29.163Z,17.50
2022-09-23T01:55:03.930Z,16.90
2022-09-23T01:57:38.157Z,20.75
2022-09-23T02:00:17.043Z,17.60
2022-09-23T02:02:57.833Z,22.17
2022-09-23T02:05:37.536Z,18.75
2022-09-23T02:08:36.266Z,23.98
2022-09-23T02:11:11.564Z,21.58
2022-09-23T02:14:16.832Z,18.33
2022-09-23T02:16:56.610Z,22.48
2022-09-23T02:19:32.017Z,21.83
2022-09-23T02:22:08.292Z,20.98
2022-09-23T02:24:38.248Z,17.63
2022-09-23T02:27:31.248Z,21.87
2022-09-23T02:30:16.093Z,28.38
2022-09-23T02:33:12.824Z,18.88
2022-09-23T02:35:54.951Z,17.13
2022-09-23T02:38:49.656Z,19.48
2022-09-23T02:41:19.991Z,16.53
2022-09-23T02:43:53.933Z,18.63
2022-09-23T02:46:21.016Z,19.55
2022-09-23T02:48:55.559Z,22.77
2022-09-23T02:51:23.254Z,22.00
2022-09-23T02:53:49.955Z,19.67
2022-09-23T02:56:20.801Z,23.67
2022-09-23T02:58:49.167Z,17.92
2022-09-23T03:01:44.005Z,21.40
2022-09-23T03:04:19.632Z,19.95
2022-09-23T03:07:01.043Z,22.67
2022-09-23T03:09:52.903Z,16.20
2022-09-23T03:12:50.431Z,19.95
2022-09-23T03:15:31.248Z,21.25
2022-09-23T03:18:25.044Z,18.85
2022-09-23T03:20:54.256Z,17.73
2022-09-23T03:23:25.949Z,22.95
2022-09-23T03:25:55.371Z,19.77
2022-09-23T03:28:23.476Z,16.75
2022-09-23T03:30:52.412Z,17.90
2022-09-23T03:33:26.787Z,22.40
2022-09-23T03:36:01.751Z,21.30
2022-09-23T03:38:34.942Z,19.67
2022-09-23T03:41:04.134Z,22.02
2022-09-23T03:43:36.517Z,23.05
2022-09-23T03:46:05.774Z,21.77
2022-09-23T03:48:32.447Z,18.70
2022-09-23T03:51:21.812Z,18.75
2022-09-23T03:53:48.694Z,20.40
2022-09-23T03:56:15.416Z,18.33
2022-09-23T03:58:41.984Z,23.77
2022-09-23T04:01:20.768Z,23.98
2022-09-23T04:04:26.409Z,21.80
2022-09-23T04:06:58.972Z,20.17
2022-09-23T04:09:40.001Z,22.00
2022-09-23T04:12:11.665Z,22.93
2022-09-23T04:14:38.525Z,16.80
2022-09-23T04:17:09.936Z,19.98
2022-09-23T04:19:39.522Z,18.17
2022-09-23T04:22:18.165Z,21.92
2022-09-23T04:27:34.229Z,17.90
2022-09-23T04:30:04.341Z,20.88
2022-09-23T04:32:31.002Z,20.17
2022-09-23T04:34:57.675Z,17.08
2022-09-23T04:37:24.374Z,18.97
2022-09-23T04:40:00.170Z,16.30
2022-09-23T04:42:29.036Z,18.02
2022-09-23T04:45:05.326Z,16.08
2022-09-23T04:47:38.093Z,16.45
2022-09-23T04:50:19.376Z,15.53
2022-09-23T04:52:49.139Z,14.90
2022-09-23T04:55:15.917Z,17.05
2022-09-23T04:57:45.619Z,14.65
2022-09-23T05:00:17.521Z,17.42
2022-09-23T05:02:47.695Z,17.83
2022-09-23T05:05:22.821Z,18.20
2022-09-23T05:07:55.595Z,15.45
2022-09-23T05:10:37.773Z,16.85
2022-09-23T05:13:13.218Z,20.25
2022-09-23T05:15:45.896Z,15.97
2022-09-23T05:18:12.602Z,18.10
2022-09-23T05:21:05.085Z,16.77
2022-09-23T05:23:55.571Z,17.23
2022-09-23T05:26:24.204Z,20.33
2022-09-23T05:28:51.332Z,17.47
2022-09-23T05:31:22.240Z,19.38
2022-09-23T05:34:03.712Z,14.10
2022-09-23T05:36:40.133Z,13.20
2022-09-23T05:39:08.059Z,14.05
2022-09-23T05:41:35.547Z,16.37
2022-09-23T05:44:02.635Z,15.48
2022-09-23T05:46:32.304Z,17.23
2022-09-23T05:49:02.578Z,19.42
2022-09-23T05:51:31.661Z,15.65
2022-09-23T05:56:45.976Z,18.50
2022-09-23T05:59:16.534Z,13.38
2022-09-23T06:04:24.728Z,15.10
2022-09-23T06:07:23.895Z,16.23
2022-09-23T06:09:53.317Z,14.00
2022-09-23T06:12:23.157Z,14.07
2022-09-23T06:15:04.254Z,17.30
2022-09-23T06:34:09.337Z,18.67
2022-09-23T06:36:43.931Z,14.93
2022-09-23T06:39:11.899Z,13.05
2022-09-23T06:41:38.572Z,14.30
2022-09-23T06:44:05.467Z,15.95
2022-09-23T06:46:32.226Z,15.38
2022-09-23T06:48:59.111Z,14.60
2022-09-23T06:51:25.771Z,12.07
2022-09-23T06:53:53.508Z,13.25
2022-09-23T06:56:20.077Z,17.88
2022-09-23T06:58:47.325Z,13.73
2022-09-23T07:01:16.131Z,12.77
2022-09-23T07:03:44.511Z,13.77
2022-09-23T07:06:11.598Z,14.73
2022-09-23T07:09:11.797Z,13.27
2022-09-23T07:11:38.374Z,16.45
2022-09-23T07:17:41.818Z,17.05
2022-09-23T07:43:06.757Z,13.03
2022-09-23T07:45:33.465Z,14.48
2022-09-23T07:48:02.875Z,14.75
2022-09-23T07:50:39.235Z,13.38
2022-09-23T07:53:08.983Z,12.85
2022-09-23T07:55:35.795Z,17.93
2022-09-23T07:58:08.421Z,14.00
2022-09-23T08:00:37.948Z,13.02
2022-09-23T08:03:10.558Z,15.35
2022-09-23T08:05:46.107Z,15.10
2022-09-23T08:08:21.741Z,12.87
2022-09-23T08:11:02.499Z,15.02
2022-09-23T08:13:29.311Z,16.95
2022-09-23T08:15:56.540Z,14.05
2022-09-23T08:18:31.238Z,17.73
2022-09-23T08:21:01.205Z,15.30
2022-09-23T08:23:34.024Z,14.77
2022-09-23T08:26:19.891Z,13.75
2022-09-23T08:28:49.142Z,16.95
2022-09-23T08:31:16.172Z,14.35
2022-09-23T08:33:46.081Z,13.20
2022-09-23T08:36:18.098Z,13.13
2022-09-23T08:38:53.777Z,15.80
2022-09-23T08:41:35.294Z,11.02
2022-09-23T08:44:25.464Z,17.52
2022-09-23T08:47:22.914Z,11.40
2022-09-23T08:50:11.330Z,14.68
2022-09-23T08:55:49.200Z,12.43
2022-09-23T09:01:36.599Z,16.07
2022-09-23T09:04:14.837Z,18.38
2022-09-23T09:06:53.641Z,15.82
2022-09-23T09:09:46.849Z,11.02
2022-09-23T09:12:31.068Z,14.98
2022-09-23T09:15:06.989Z,14.00
2022-09-23T09:20:15.514Z,16.58
2022-09-23T09:25:57.319Z,16.55
2022-09-23T09:31:57.013Z,17.33
2022-09-23T09:34:58.371Z,13.73
2022-09-23T09:37:31.827Z,22.05
2022-09-23T09:40:00.544Z,18.75
2022-09-23T09:46:04.809Z,13.65
2022-09-23T09:51:24.511Z,18.10
2022-09-23T09:53:54.281Z,13.93
2022-09-23T09:56:35.500Z,16.20
2022-09-23T09:59:09.905Z,20.83
2022-09-23T10:01:37.169Z,17.75
2022-09-23T10:04:06.780Z,15.60
2022-09-23T10:06:39.049Z,17.40
2022-09-23T10:09:13.544Z,14.27
2022-09-23T10:11:44.733Z,17.35
2022-09-23T10:14:23.717Z,15.18
2022-09-23T10:17:24.242Z,16.60
2022-09-23T10:23:26.792Z,21.03
2022-09-23T10:29:02.058Z,15.60
2022-09-23T10:37:34.038Z,14.17
2022-09-23T10:40:37.670Z,13.38
2022-09-23T10:43:37.184Z,13.40
2022-09-23T10:46:08.136Z,12.77
2022-09-23T10:49:01.680Z,19.75
2022-09-23T10:52:06.685Z,21.77
2022-09-23T10:54:36.154Z,17.25
2022-09-23T11:01:15.208Z,9.10
2022-09-23T11:04:19.109Z,13.05
2022-09-23T11:07:33.821Z,14.20
2022-09-23T11:10:00.590Z,18.02
2022-09-23T11:19:29.402Z,11.52
2022-09-23T11:22:08.272Z,11.43
2022-09-23T11:25:12.222Z,17.50
2022-09-23T11:28:05.797Z,12.38
2022-09-23T11:31:16.821Z,11.15
2022-09-23T11:43:40.980Z,14.57
2022-09-23T11:46:45.319Z,9.85
2022-09-23T11:49:57.727Z,12.35
2022-09-23T12:01:54.491Z,12.63
2022-09-23T12:04:57.358Z,12.88
2022-09-23T12:07:33.226Z,10.57
2022-09-23T12:10:29.368Z,12.77
2022-09-23T12:13:38.264Z,15.20
2022-09-23T12:16:42.067Z,12.07
2022-09-23T12:19:43.109Z,13.43
2022-09-23T12:22:26.287Z,21.37
2022-09-23T12:25:31.355Z,13.15
2022-09-23T12:28:10.698Z,16.10
2022-09-23T12:30:39.712Z,13.10
2022-09-23T12:33:11.164Z,12.02
2022-09-23T12:35:43.312Z,13.53
2022-09-23T12:38:31.980Z,11.63
2022-09-23T12:41:41.932Z,12.40
2022-09-23T12:44:12.647Z,10.18
2022-09-23T12:46:40.755Z,14.63
2022-09-23T12:49:23.720Z,12.47
2022-09-23T12:52:12.115Z,14.77
2022-09-23T12:54:40.345Z,14.38
2022-09-23T12:57:31.689Z,14.93
2022-09-23T13:00:08.837Z,13.95
2022-09-23T13:02:56.202Z,15.10
2022-09-23T13:05:32.662Z,16.65
2022-09-23T13:08:05.148Z,13.05
2022-09-23T13:10:46.130Z,16.15
2022-09-23T13:13:33.218Z,17.92
2022-09-23T13:16:39.497Z,23.33
2022-09-23T13:22:41.094Z,13.93
2022-09-23T13:25:19.246Z,18.65
2022-09-23T13:27:51.787Z,16.60
2022-09-23T13:30:25.700Z,19.03
2022-09-23T13:33:16.276Z,18.35
2022-09-23T13:36:12.622Z,15.13
2022-09-23T13:38:41.789Z,12.77
2022-09-23T13:41:41.938Z,9.45
2022-09-23T13:44:16.576Z,14.83
2022-09-23T13:46:47.130Z,13.40
2022-09-23T13:49:25.726Z,11.43
2022-09-23T13:51:53.206Z,14.38
2022-09-23T13:57:28.882Z,9.17
2022-09-23T14:00:27.818Z,10.55
2022-09-23T14:02:54.604Z,10.68
2022-09-23T14:05:25.583Z,11.75
2022-09-23T14:07:59.226Z,12.35
2022-09-23T14:10:29.114Z,10.43
2022-09-23T14:12:58.342Z,10.02
2022-09-23T14:15:25.642Z,13.88
2022-09-23T14:18:02.918Z,12.43
2022-09-23T14:20:32.109Z,10.38
2022-09-23T14:25:42.473Z,9.32
2022-09-23T14:28:20.891Z,10.80
2022-09-23T14:30:49.496Z,11.40
2022-09-23T14:33:28.234Z,15.63
2022-09-23T14:38:45.169Z,12.02
2022-09-23T14:41:36.588Z,13.88
2022-09-23T14:44:22.140Z,9.43
2022-09-23T14:47:00.496Z,12.70
2022-09-23T14:49:36.356Z,11.50
2022-09-23T14:52:06.785Z,11.93
2022-09-23T14:55:14.098Z,17.00
2022-09-23T14:57:46.761Z,10.43
2022-09-23T15:00:22.925Z,9.25
2022-09-23T15:03:15.025Z,13.13
2022-09-23T15:08:45.006Z,12.95
2022-09-23T15:11:24.503Z,12.05
2022-09-23T15:14:19.537Z,12.93
2022-09-23T15:16:50.028Z,14.60
2022-09-23T15:19:19.887Z,11.13
2022-09-23T15:21:55.630Z,12.00
2022-09-23T15:24:40.931Z,14.18
2022-09-23T15:27:41.881Z,15.93
2022-09-23T15:30:19.405Z,11.90
2022-09-23T15:32:46.726Z,18.02
2022-09-23T15:35:20.610Z,13.95
2022-09-23T15:37:49.762Z,12.43
2022-09-23T15:40:28.771Z,13.93
2022-09-23T15:43:21.043Z,19.67
2022-09-23T15:46:19.401Z,19.45
2022-09-23T15:48:58.929Z,16.33
2022-09-23T15:51:27.381Z,16.95
2022-09-23T15:53:54.722Z,16.13
2022-09-23T15:56:27.021Z,18.27
2022-09-23T15:58:56.074Z,18.83
2022-09-23T16:01:34.932Z,21.40
2022-09-23T16:04:02.401Z,18.80
2022-09-23T16:06:38.419Z,19.48
2022-09-23T16:09:08.446Z,20.93
2022-09-23T16:11:38.167Z,23.48
2022-09-23T16:14:12.886Z,18.73
2022-09-23T16:16:42.721Z,19.83
2022-09-23T16:19:09.571Z,20.65
2022-09-23T16:21:38.979Z,22.03
2022-09-23T16:24:15.807Z,20.05
2022-09-23T16:26:42.863Z,20.05
2022-09-23T16:29:14.969Z,21.10
2022-09-23T16:31:47.511Z,18.83
2022-09-23T16:34:16.962Z,22.07
2022-09-23T16:36:49.090Z,19.65
2022-09-23T16:39:15.710Z,23.27
2022-09-23T16:41:50.269Z,19.60
2022-09-23T16:44:16.860Z,22.27
2022-09-23T16:46:43.482Z,22.27
2022-09-23T16:49:10.522Z,24.48
2022-09-23T16:51:46.278Z,25.90
2022-09-23T16:54:15.678Z,20.00
2022-09-23T16:59:34.572Z,29.93
2022-09-23T17:02:01.235Z,22.60
2022-09-23T17:04:30.510Z,32.22
2022-09-23T17:06:57.828Z,22.27
2022-09-23T17:09:29.376Z,29.00
2022-09-23T17:12:11.500Z,26.33
2022-09-23T17:14:38.089Z,24.13
2022-09-23T17:17:04.762Z,24.67
2022-09-23T17:19:34.400Z,30.33
2022-09-23T17:22:13.379Z,24.38
2022-09-23T17:24:40.252Z,27.50
2022-09-23T17:27:09.977Z,25.30
2022-09-23T17:29:36.602Z,29.23
2022-09-23T17:32:11.378Z,27.13
2022-09-23T17:34:38.074Z,25.52
2022-09-23T17:37:04.765Z,24.47
2022-09-23T17:39:31.483Z,31.10
2022-09-23T17:41:58.137Z,30.67
2022-09-23T17:44:24.868Z,27.85
2022-09-23T17:46:51.710Z,30.00
2022-09-23T17:49:18.365Z,28.20
2022-09-23T17:51:45.060Z,29.95
2022-09-23T17:54:11.730Z,27.75
2022-09-23T17:56:38.363Z,30.35
2022-09-23T17:59:04.952Z,29.40
2022-09-23T18:01:31.664Z,29.13
2022-09-23T18:04:00.721Z,35.45
2022-09-23T18:06:29.520Z,32.03
2022-09-23T18:08:57.953Z,26.90
2022-09-23T18:11:29.441Z,26.25
2022-09-23T18:14:04.767Z,30.73
2022-09-23T18:16:35.243Z,31.63
2022-09-23T18:19:04.132Z,27.55
2022-09-23T18:21:33.666Z,27.98
2022-09-23T18:24:28.587Z,30.50
2022-09-23T18:26:47.914Z,29.40
2022-09-23T18:29:14.509Z,28.52
2022-09-23T18:48:21.094Z,28.83
2022-09-23T18:50:47.834Z,31.27
2022-09-23T18:53:14.547Z,29.00
2022-09-23T18:55:42.019Z,29.17
2022-09-23T18:58:15.168Z,28.70
2022-09-23T19:00:45.042Z,29.58
2022-09-23T19:04:04.457Z,34.25
2022-09-23T19:06:52.958Z,32.20
2022-09-23T19:18:16.616Z,30.65
2022-09-23T19:20:55.038Z,34.67
2022-09-23T19:23:21.950Z,31.17
2022-09-23T19:26:01.036Z,29.00
2022-09-23T19:28:27.927Z,29.92
2022-09-23T19:30:54.582Z,32.17
2022-09-23T19:33:22.280Z,29.87
2022-09-23T19:35:50.838Z,33.80
2022-09-23T19:38:18.617Z,29.60
2022-09-23T19:40:49.742Z,28.63
2022-09-23T19:43:16.731Z,32.38
2022-09-23T19:45:43.412Z,35.40
2022-09-23T19:48:10.439Z,30.33
2022-09-23T19:50:40.192Z,31.38
2022-09-23T19:53:07.459Z,32.58
2022-09-23T19:55:37.418Z,29.30
2022-09-23T19:58:04.465Z,31.47
2022-09-23T20:00:32.179Z,28.45
2022-09-23T20:02:59.417Z,31.10
2022-09-23T20:05:26.756Z,34.20
2022-09-23T20:07:53.426Z,32.42
2022-09-23T20:10:20.353Z,32.03
2022-09-23T20:12:46.946Z,25.98
2022-09-23T20:15:14.373Z,28.98
2022-09-23T20:17:41.053Z,26.10
2022-09-23T20:20:09.777Z,27.30
2022-09-23T20:23:00.984Z,21.20
2022-09-23T20:25:27.747Z,18.83
2022-09-23T20:27:55.590Z,19.20
2022-09-23T20:30:22.207Z,18.98
2022-09-23T20:35:18.997Z,17.15
2022-09-23T20:39:02.035Z,17.48
2022-09-23T20:41:55.451Z,20.67
2022-09-23T20:44:52.375Z,20.63
2022-09-23T20:50:05.077Z,21.93
2022-09-23T20:55:35.935Z,18.40
2022-09-23T21:05:28.619Z,21.90
2022-09-23T21:08:00.756Z,21.15
2022-09-23T21:10:29.517Z,18.42
2022-09-23T21:12:58.297Z,16.83
2022-09-23T21:15:37.284Z,17.90
2022-09-23T21:18:05.086Z,18.60
2022-09-23T21:20:34.939Z,19.33
2022-09-23T21:23:10.476Z,17.70
2022-09-23T21:25:37.737Z,18.50
2022-09-23T21:28:10.963Z,18.92
2022-09-23T21:30:42.035Z,16.63
2022-09-23T21:33:14.178Z,20.80
2022-09-23T21:35:47.533Z,22.98
2022-09-23T21:38:14.380Z,19.85
2022-09-23T21:41:15.638Z,21.80
2022-09-23T21:50:31.539Z,23.05
2022-09-23T21:52:59.270Z,22.63
2022-09-23T21:55:29.693Z,28.52
2022-09-23T21:58:01.618Z,23.50
2022-09-23T22:00:34.222Z,25.58
2022-09-23T22:03:00.906Z,23.83
2022-09-23T22:05:36.566Z,28.90
2022-09-23T22:08:03.163Z,27.88
2022-09-23T22:10:31.796Z,29.83
2022-09-23T22:12:58.476Z,29.48
2022-09-23T22:15:31.139Z,30.05
2022-09-23T22:18:09.103Z,29.50
2022-09-23T22:20:35.769Z,30.45
2022-09-23T22:23:08.438Z,34.37
2022-09-23T22:25:37.359Z,35.75
2022-09-23T22:28:12.688Z,31.20
2022-09-23T22:30:39.406Z,33.53
2022-09-23T22:33:09.064Z,34.30
2022-09-23T22:35:35.673Z,29.30
2022-09-23T22:38:15.664Z,29.08
2022-09-23T22:40:47.838Z,30.23
2022-09-23T22:43:20.507Z,30.50
2022-09-23T22:45:53.040Z,34.42
2022-09-23T22:48:21.956Z,32.30
2022-09-23T22:50:54.203Z,37.80
2022-09-23T22:53:23.098Z,35.60
2022-09-23T22:56:39.205Z,31.00
2022-09-23T22:59:07.870Z,31.27
2022-09-23T23:01:37.695Z,34.87
2022-09-23T23:04:04.719Z,34.63
2022-09-23T23:06:39.663Z,32.33
2022-09-23T23:09:13.314Z,34.90
2022-09-23T23:11:43.170Z,31.45
2022-09-23T23:14:11.256Z,40.40
2022-09-23T23:16:38.459Z,42.67
2022-09-23T23:19:17.708Z,40.55
2022-09-23T23:21:45.111Z,37.47
2022-09-23T23:24:26.631Z,36.92
2022-09-23T23:26:57.753Z,37.07
2022-09-23T23:29:26.829Z,35.30
2022-09-23T23:31:58.831Z,38.80
2022-09-23T23:34:28.483Z,45.47
2022-09-23T23:37:04.196Z,36.22
2022-09-23T23:39:36.221Z,36.93
2022-09-23T23:42:02.945Z,34.65
2022-09-23T23:44:35.001Z,36.97
2022-09-23T23:47:07.217Z,40.58
2022-09-23T23:49:42.748Z,37.72
2022-09-23T23:52:19.810Z,38.73
2022-09-23T23:54:49.367Z,38.20
2022-09-23T23:57:18.882Z,36.10
2022-09-23T23:59:54.102Z,33.45
